createdAt,value
2022-12-19T00:00:32.058Z,76.08
2022-12-19T00:03:05.642Z,75.96
2022-12-19T00:05:19.351Z,76.12
2022-12-19T00:07:32.667Z,75.87
2022-12-19T00:09:47.123Z,75.82
2022-12-19T00:12:00.842Z,75.12
2022-12-19T00:14:15.856Z,74.73
2022-12-19T00:16:31.016Z,74.96
2022-12-19T00:18:45.716Z,74.88
2022-12-19T00:21:08.307Z,74.80
2022-12-19T00:23:18.807Z,74.42
2022-12-19T00:25:32.010Z,74.59
2022-12-19T00:27:45.207Z,75.21
2022-12-19T00:29:58.523Z,75.25
2022-12-19T00:32:13.683Z,74.91
2022-12-19T00:34:29.732Z,74.55
2022-12-19T00:36:43.627Z,74.68
2022-12-19T00:38:58.215Z,74.50
2022-12-19T00:41:15.969Z,74.23
2022-12-19T00:43:29.395Z,74.44
2022-12-19T00:45:43.977Z,74.48
2022-12-19T00:47:57.428Z,74.17
2022-12-19T00:50:12.985Z,74.17
2022-12-19T00:52:26.284Z,74.00
2022-12-19T00:54:43.312Z,73.94
2022-12-19T00:56:56.841Z,73.29
2022-12-19T00:59:11.535Z,73.55
2022-12-19T01:01:26.598Z,73.78
2022-12-19T01:03:46.171Z,73.42
2022-12-19T01:06:12.676Z,73.61
2022-12-19T01:08:26.549Z,75.11
2022-12-19T01:10:41.055Z,75.03
2022-12-19T01:12:54.342Z,75.84
2022-12-19T01:15:07.908Z,75.66
2022-12-19T01:17:21.286Z,76.51
2022-12-19T01:19:38.969Z,77.34
2022-12-19T01:21:55.440Z,77.59
2022-12-19T01:24:11.875Z,77.61
2022-12-19T01:26:25.647Z,77.74
2022-12-19T01:28:38.901Z,77.57
2022-12-19T01:30:52.180Z,76.89
2022-12-19T01:33:05.819Z,76.79
2022-12-19T01:35:21.686Z,77.01
2022-12-19T01:37:35.602Z,77.59
2022-12-19T01:39:48.948Z,77.69
2022-12-19T01:42:02.807Z,78.08
2022-12-19T01:44:15.907Z,78.94
2022-12-19T01:46:35.301Z,79.10
2022-12-19T01:48:50.304Z,79.98
2022-12-19T01:51:06.396Z,80.92
2022-12-19T01:53:20.400Z,81.50
2022-12-19T01:55:34.497Z,81.57
2022-12-19T01:57:47.771Z,81.56
2022-12-19T02:00:05.164Z,80.90
2022-12-19T02:02:32.339Z,81.26
2022-12-19T02:04:47.075Z,81.23
2022-12-19T02:07:14.967Z,81.19
2022-12-19T02:09:30.498Z,81.52
2022-12-19T02:11:44.537Z,81.65
2022-12-19T02:14:01.450Z,81.77
2022-12-19T02:16:29.988Z,82.17
2022-12-19T02:18:53.193Z,81.97
2022-12-19T02:21:26.709Z,81.68
2022-12-19T02:24:32.660Z,81.36
2022-12-19T02:27:04.284Z,81.10
2022-12-19T02:29:38.322Z,80.91
2022-12-19T02:31:57.991Z,81.02
2022-12-19T02:34:20.214Z,80.97
2022-12-19T02:36:47.428Z,80.96
2022-12-19T02:39:08.097Z,80.90
2022-12-19T02:41:26.541Z,80.80
2022-12-19T02:43:44.026Z,80.88
2022-12-19T02:45:59.009Z,81.08
2022-12-19T02:48:18.911Z,81.10
2022-12-19T02:50:38.855Z,81.36
2022-12-19T02:52:55.213Z,81.47
2022-12-19T02:55:13.652Z,81.67
2022-12-19T02:57:36.410Z,82.36
2022-12-19T03:00:05.756Z,82.94
2022-12-19T03:02:29.285Z,82.55
2022-12-19T03:04:52.283Z,83.22
2022-12-19T03:07:07.286Z,83.24
2022-12-19T03:09:28.229Z,83.76
2022-12-19T03:11:44.139Z,83.54
2022-12-19T03:14:01.561Z,83.56
2022-12-19T03:16:17.097Z,83.83
2022-12-19T03:18:31.533Z,83.64
2022-12-19T03:20:51.814Z,83.84
2022-12-19T03:23:05.097Z,83.88
2022-12-19T03:25:22.129Z,83.75
2022-12-19T03:27:39.274Z,83.88
2022-12-19T03:29:56.939Z,84.64
2022-12-19T03:32:14.290Z,84.78
2022-12-19T03:34:31.887Z,85.15
2022-12-19T03:36:50.260Z,84.45
2022-12-19T03:39:08.375Z,84.40
2022-12-19T03:41:45.049Z,84.35
2022-12-19T03:43:58.354Z,84.57
2022-12-19T03:46:17.098Z,84.69
2022-12-19T03:48:35.512Z,84.09
2022-12-19T03:50:55.816Z,83.86
2022-12-19T03:53:19.154Z,83.56
2022-12-19T03:55:37.973Z,83.09
2022-12-19T03:57:55.346Z,83.17
2022-12-19T04:00:12.353Z,83.15
2022-12-19T04:02:27.703Z,82.95
2022-12-19T04:04:43.717Z,82.95
2022-12-19T04:06:57.631Z,82.71
2022-12-19T04:09:11.842Z,82.52
2022-12-19T04:11:26.504Z,82.46
2022-12-19T04:13:44.834Z,82.31
2022-12-19T04:16:04.260Z,82.26
2022-12-19T04:18:19.554Z,82.18
2022-12-19T04:20:34.736Z,82.11
2022-12-19T04:22:50.841Z,82.05
2022-12-19T04:25:06.918Z,81.85
2022-12-19T04:27:21.275Z,81.94
2022-12-19T04:29:36.600Z,81.78
2022-12-19T04:31:50.536Z,81.78
2022-12-19T04:34:04.467Z,81.76
2022-12-19T04:36:18.287Z,81.57
2022-12-19T04:38:31.987Z,81.55
2022-12-19T04:40:45.086Z,81.41
2022-12-19T04:42:58.457Z,81.48
2022-12-19T04:45:12.973Z,81.68
2022-12-19T04:47:26.714Z,81.72
2022-12-19T04:49:40.355Z,82.15
2022-12-19T04:51:53.598Z,82.33
2022-12-19T04:54:07.589Z,82.28
2022-12-19T04:56:20.996Z,82.25
2022-12-19T04:58:35.505Z,82.42
2022-12-19T05:00:48.788Z,82.37
2022-12-19T05:03:03.127Z,82.29
2022-12-19T05:05:17.005Z,82.21
2022-12-19T05:07:30.290Z,82.26
2022-12-19T05:09:43.548Z,82.56
2022-12-19T05:11:56.755Z,82.82
2022-12-19T05:14:10.055Z,82.70
2022-12-19T05:16:23.681Z,82.54
2022-12-19T05:18:37.438Z,82.56
2022-12-19T05:20:54.552Z,82.69
2022-12-19T05:23:15.248Z,82.83
2022-12-19T05:25:30.466Z,82.94
2022-12-19T05:27:43.874Z,83.00
2022-12-19T05:29:57.076Z,82.75
2022-12-19T05:32:10.393Z,82.64
2022-12-19T05:34:23.722Z,82.82
2022-12-19T05:36:37.056Z,83.00
2022-12-19T05:38:50.521Z,82.99
2022-12-19T05:41:03.883Z,83.17
2022-12-19T05:43:17.200Z,83.20
2022-12-19T05:45:30.514Z,83.09
2022-12-19T05:47:45.110Z,83.05
2022-12-19T05:49:58.156Z,82.80
2022-12-19T05:52:13.979Z,82.77
2022-12-19T05:54:27.410Z,82.53
2022-12-19T05:56:40.870Z,82.51
2022-12-19T05:58:55.724Z,82.69
2022-12-19T06:01:12.901Z,82.79
2022-12-19T06:03:26.313Z,82.91
2022-12-19T06:05:43.017Z,82.84
2022-12-19T06:07:57.500Z,82.84
2022-12-19T06:10:11.775Z,82.72
2022-12-19T06:12:25.178Z,82.64
2022-12-19T06:14:38.450Z,82.69
2022-12-19T06:16:51.748Z,82.99
2022-12-19T06:19:05.170Z,83.11
2022-12-19T06:21:20.083Z,83.03
2022-12-19T06:23:35.392Z,83.18
2022-12-19T06:25:48.869Z,83.39
2022-12-19T06:28:02.263Z,83.37
2022-12-19T06:30:18.160Z,83.46
2022-12-19T06:32:36.287Z,83.56
2022-12-19T06:35:06.641Z,83.48
2022-12-19T06:37:20.366Z,83.50
2022-12-19T06:39:33.784Z,83.46
2022-12-19T06:42:03.728Z,83.47
2022-12-19T06:44:19.042Z,83.65
2022-12-19T06:46:32.371Z,83.74
2022-12-19T06:48:45.719Z,83.62
2022-12-19T06:50:59.316Z,83.28
2022-12-19T06:53:12.710Z,83.46
2022-12-19T06:55:26.664Z,83.62
2022-12-19T06:57:47.049Z,83.51
2022-12-19T07:00:01.191Z,83.58
2022-12-19T07:02:25.466Z,83.64
2022-12-19T07:04:43.440Z,83.63
2022-12-19T07:06:56.880Z,83.60
2022-12-19T07:09:10.571Z,83.68
2022-12-19T07:11:24.849Z,83.63
2022-12-19T07:13:38.385Z,83.65
2022-12-19T07:15:52.246Z,83.72
2022-12-19T07:18:07.424Z,83.71
2022-12-19T07:20:22.844Z,83.68
2022-12-19T07:22:38.549Z,83.75
2022-12-19T07:24:51.918Z,83.62
2022-12-19T07:27:05.560Z,83.72
2022-12-19T07:29:19.536Z,83.99
2022-12-19T07:31:33.072Z,83.96
2022-12-19T07:33:47.186Z,83.88
2022-12-19T07:36:00.600Z,84.03
2022-12-19T07:38:14.364Z,84.11
2022-12-19T07:40:27.987Z,84.15
2022-12-19T07:42:41.338Z,84.19
2022-12-19T07:44:54.605Z,84.25
2022-12-19T07:47:09.190Z,84.30
2022-12-19T07:49:25.505Z,84.31
2022-12-19T07:51:38.828Z,84.28
2022-12-19T07:53:52.074Z,84.28
2022-12-19T07:56:05.316Z,84.39
2022-12-19T07:58:18.521Z,84.36
2022-12-19T08:00:32.594Z,84.38
2022-12-19T08:02:45.983Z,84.42
2022-12-19T08:04:59.749Z,84.57
2022-12-19T08:07:14.483Z,84.64
2022-12-19T08:09:28.899Z,84.45
2022-12-19T08:11:42.166Z,84.42
2022-12-19T08:13:55.872Z,84.68
2022-12-19T08:16:09.824Z,84.71
2022-12-19T08:18:23.021Z,84.61
2022-12-19T08:20:36.315Z,84.67
2022-12-19T08:22:49.820Z,84.79
2022-12-19T08:25:03.230Z,84.77
2022-12-19T08:27:16.712Z,84.74
2022-12-19T08:29:30.446Z,84.71
2022-12-19T08:31:43.710Z,84.81
2022-12-19T08:33:57.332Z,84.84
2022-12-19T08:36:13.303Z,85.06
2022-12-19T08:38:26.625Z,85.15
2022-12-19T08:40:44.336Z,85.27
2022-12-19T08:43:00.843Z,85.51
2022-12-19T08:45:15.196Z,85.62
2022-12-19T08:47:28.475Z,85.65
2022-12-19T08:49:42.011Z,85.68
2022-12-19T08:51:55.282Z,85.55
2022-12-19T08:54:08.698Z,85.68
2022-12-19T08:56:26.484Z,85.71
2022-12-19T08:58:40.194Z,85.75
2022-12-19T09:00:57.584Z,85.58
2022-12-19T09:03:16.281Z,85.62
2022-12-19T09:06:03.700Z,85.73
2022-12-19T09:08:05.392Z,85.88
2022-12-19T09:10:18.705Z,85.90
2022-12-19T09:12:33.308Z,85.96
2022-12-19T09:14:47.293Z,85.96
2022-12-19T09:17:01.715Z,85.98
2022-12-19T09:19:18.065Z,86.08
2022-12-19T09:21:34.088Z,86.14
2022-12-19T09:23:51.133Z,86.13
2022-12-19T09:26:08.928Z,86.06
2022-12-19T09:28:29.479Z,86.07
2022-12-19T09:30:43.015Z,86.14
2022-12-19T09:32:56.203Z,86.08
2022-12-19T09:35:10.201Z,86.21
2022-12-19T09:37:23.464Z,86.29
2022-12-19T09:39:37.568Z,86.34
2022-12-19T09:42:13.424Z,86.24
2022-12-19T09:44:44.136Z,86.42
2022-12-19T09:47:00.350Z,86.54
2022-12-19T09:49:20.123Z,86.58
2022-12-19T09:51:42.151Z,86.65
2022-12-19T09:54:05.082Z,86.75
2022-12-19T09:56:21.141Z,86.80
2022-12-19T09:58:46.077Z,86.58
2022-12-19T10:01:05.566Z,86.62
2022-12-19T10:03:25.553Z,86.71
2022-12-19T10:06:54.388Z,86.82
2022-12-19T10:08:22.797Z,87.09
2022-12-19T10:12:30.121Z,87.05
2022-12-19T10:13:35.737Z,87.05
2022-12-19T10:16:00.362Z,87.03
2022-12-19T10:18:36.140Z,86.87
2022-12-19T10:20:55.841Z,86.95
2022-12-19T10:23:29.643Z,87.15
2022-12-19T10:25:46.574Z,87.12
2022-12-19T10:28:09.407Z,87.21
2022-12-19T10:30:24.613Z,87.25
2022-12-19T10:32:45.587Z,87.27
2022-12-19T10:34:59.552Z,87.09
2022-12-19T10:37:29.356Z,86.94
2022-12-19T10:39:58.649Z,86.96
2022-12-19T10:42:20.325Z,86.90
2022-12-19T10:44:38.683Z,86.86
2022-12-19T10:46:54.376Z,86.97
2022-12-19T10:49:14.775Z,87.05
2022-12-19T10:51:31.579Z,87.01
2022-12-19T10:53:44.973Z,87.02
2022-12-19T10:56:03.948Z,87.13
2022-12-19T10:58:36.980Z,87.07
2022-12-19T11:01:00.198Z,87.03
2022-12-19T11:03:19.549Z,87.01
2022-12-19T11:05:42.543Z,87.02
2022-12-19T11:08:02.668Z,87.27
2022-12-19T11:12:02.672Z,87.39
2022-12-19T11:17:24.278Z,87.43
2022-12-19T11:19:27.509Z,87.68
2022-12-19T11:27:49.882Z,87.63
2022-12-19T11:29:24.868Z,87.54
2022-12-19T11:30:08.455Z,87.67
2022-12-19T11:30:59.585Z,87.60
2022-12-19T11:32:39.065Z,87.58
2022-12-19T11:34:40.257Z,87.77
2022-12-19T11:36:57.497Z,87.62
2022-12-19T11:39:16.069Z,87.45
2022-12-19T11:41:37.519Z,87.44
2022-12-19T11:44:00.120Z,87.47
2022-12-19T11:46:22.483Z,87.55
2022-12-19T11:48:44.385Z,87.50
2022-12-19T11:51:05.004Z,87.61
2022-12-19T11:53:23.514Z,87.62
2022-12-19T11:55:45.445Z,87.56
2022-12-19T11:58:00.909Z,87.51
2022-12-19T12:00:22.121Z,87.66
2022-12-19T12:03:14.005Z,87.50
2022-12-19T12:05:57.748Z,87.75
2022-12-19T12:10:27.826Z,87.79
2022-12-19T12:15:52.273Z,87.82
2022-12-19T12:21:00.198Z,87.80
2022-12-19T12:28:34.604Z,87.79
2022-12-19T12:31:20.197Z,87.99
2022-12-19T12:31:22.909Z,88.05
2022-12-19T12:31:43.659Z,87.99
2022-12-19T12:32:00.974Z,88.02
2022-12-19T12:32:06.046Z,87.97
2022-12-19T12:35:31.716Z,87.93
2022-12-19T12:38:45.101Z,87.94
2022-12-19T12:41:21.965Z,88.04
2022-12-19T12:43:50.423Z,87.83
2022-12-19T12:46:04.347Z,87.84
2022-12-19T12:48:28.270Z,87.92
2022-12-19T12:50:49.861Z,87.96
2022-12-19T12:53:11.364Z,88.12
2022-12-19T12:55:28.276Z,87.99
2022-12-19T12:57:42.932Z,87.94
2022-12-19T13:00:24.785Z,87.95
2022-12-19T13:02:39.510Z,87.93
2022-12-19T13:05:04.363Z,88.05
2022-12-19T13:07:33.016Z,88.15
2022-12-19T13:09:48.086Z,88.25
2022-12-19T13:12:23.419Z,88.22
2022-12-19T13:14:51.318Z,88.15
2022-12-19T13:17:05.708Z,88.17
2022-12-19T13:19:27.805Z,88.17
2022-12-19T13:22:09.939Z,88.27
2022-12-19T13:24:27.608Z,88.25
2022-12-19T13:26:54.848Z,88.27
2022-12-19T13:29:55.228Z,88.35
2022-12-19T13:32:22.220Z,88.34
2022-12-19T13:34:44.037Z,88.43
2022-12-19T13:39:48.417Z,88.23
2022-12-19T13:40:20.890Z,88.26
2022-12-19T13:43:10.703Z,88.43
2022-12-19T13:45:31.375Z,88.45
2022-12-19T13:47:48.123Z,88.48
2022-12-19T13:50:02.549Z,88.63
2022-12-19T13:52:18.525Z,88.61
2022-12-19T13:54:34.182Z,88.72
2022-12-19T13:56:47.575Z,88.72
2022-12-19T13:59:04.561Z,88.51
2022-12-19T14:01:27.856Z,88.34
2022-12-19T14:03:46.746Z,88.36
2022-12-19T14:06:16.535Z,88.45
2022-12-19T14:08:34.338Z,88.39
2022-12-19T14:11:43.815Z,88.57
2022-12-19T14:14:01.378Z,88.69
2022-12-19T14:16:22.897Z,88.74
2022-12-19T14:18:58.267Z,88.79
2022-12-19T14:22:05.735Z,88.74
2022-12-19T14:24:22.475Z,88.75
2022-12-19T14:28:23.736Z,88.78
2022-12-19T14:29:16.671Z,88.72
2022-12-19T14:32:40.286Z,88.62
2022-12-19T14:36:59.489Z,88.79
2022-12-19T14:39:28.957Z,88.72
2022-12-19T14:42:04.261Z,88.60
2022-12-19T14:51:42.973Z,88.70
2022-12-19T14:52:51.017Z,88.69
2022-12-19T14:54:24.919Z,88.69
2022-12-19T14:54:50.510Z,88.65
2022-12-19T14:56:16.764Z,88.82
2022-12-19T14:58:52.969Z,88.87
2022-12-19T15:01:09.103Z,88.91
2022-12-19T15:03:28.803Z,88.85
2022-12-19T15:05:42.271Z,88.88
2022-12-19T15:07:57.805Z,88.70
2022-12-19T15:11:03.852Z,88.62
2022-12-19T15:14:54.529Z,88.77
2022-12-19T15:16:01.913Z,88.60
2022-12-19T15:18:27.017Z,88.68
2022-12-19T15:20:40.484Z,88.81
2022-12-19T15:22:53.855Z,89.02
2022-12-19T15:25:13.501Z,88.96
2022-12-19T15:27:35.913Z,88.80
2022-12-19T15:29:49.579Z,88.79
2022-12-19T15:32:02.829Z,88.67
2022-12-19T15:34:38.007Z,88.66
2022-12-19T15:36:56.077Z,88.75
2022-12-19T15:39:09.878Z,88.80
2022-12-19T15:41:27.670Z,88.66
2022-12-19T15:44:04.619Z,88.80
2022-12-19T15:46:16.684Z,88.94
2022-12-19T15:48:30.588Z,88.88
2022-12-19T15:50:44.012Z,88.84
2022-12-19T15:52:58.799Z,88.82
2022-12-19T15:55:16.404Z,89.02
2022-12-19T15:57:39.614Z,88.83
2022-12-19T15:59:53.436Z,88.78
2022-12-19T16:02:07.557Z,88.72
2022-12-19T16:04:22.074Z,88.62
2022-12-19T16:06:35.784Z,88.81
2022-12-19T16:08:49.265Z,89.01
2022-12-19T16:11:03.142Z,89.11
2022-12-19T16:13:22.917Z,89.25
2022-12-19T16:15:39.617Z,89.05
2022-12-19T16:17:52.911Z,89.11
2022-12-19T16:20:06.143Z,89.22
2022-12-19T16:22:25.532Z,89.29
2022-12-19T16:24:38.872Z,89.39
2022-12-19T16:26:56.371Z,89.52
2022-12-19T16:29:17.085Z,89.54
2022-12-19T16:31:31.480Z,89.49
2022-12-19T16:33:45.150Z,89.42
2022-12-19T16:36:07.362Z,89.36
2022-12-19T16:38:21.400Z,89.44
2022-12-19T16:40:34.596Z,89.28
2022-12-19T16:42:48.876Z,89.52
2022-12-19T16:45:02.145Z,89.64
2022-12-19T16:47:19.611Z,89.67
2022-12-19T16:49:33.509Z,89.52
2022-12-19T16:51:47.259Z,89.46
2022-12-19T16:54:02.297Z,89.34
2022-12-19T16:56:24.530Z,89.32
2022-12-19T16:58:43.031Z,89.34
2022-12-19T17:00:59.194Z,89.32
2022-12-19T17:03:25.843Z,89.42
2022-12-19T17:05:39.338Z,89.55
2022-12-19T17:07:52.692Z,89.65
2022-12-19T17:10:05.891Z,89.74
2022-12-19T17:12:23.434Z,89.79
2022-12-19T17:14:37.720Z,89.92
2022-12-19T17:16:54.524Z,89.78
2022-12-19T17:19:08.053Z,89.60
2022-12-19T17:21:25.418Z,89.79
2022-12-19T17:23:38.922Z,89.75
2022-12-19T17:25:52.902Z,89.86
2022-12-19T17:28:06.392Z,89.96
2022-12-19T17:30:21.695Z,89.78
2022-12-19T17:32:35.385Z,89.83
2022-12-19T17:34:51.005Z,89.60
2022-12-19T17:37:06.931Z,89.62
2022-12-19T17:39:27.381Z,89.53
2022-12-19T17:41:40.792Z,89.51
2022-12-19T17:43:54.291Z,89.27
2022-12-19T17:46:08.170Z,89.35
2022-12-19T17:48:30.361Z,89.35
2022-12-19T17:50:44.876Z,89.16
2022-12-19T17:52:59.334Z,88.97
2022-12-19T17:55:24.349Z,88.87
2022-12-19T17:57:37.790Z,88.82
2022-12-19T17:59:51.442Z,88.78
2022-12-19T18:02:05.014Z,88.97
2022-12-19T18:04:22.328Z,88.98
2022-12-19T18:06:35.808Z,89.06
2022-12-19T18:08:49.660Z,89.04
2022-12-19T18:11:04.567Z,89.02
2022-12-19T18:13:17.937Z,88.85
2022-12-19T18:15:31.695Z,88.93
2022-12-19T18:17:46.194Z,89.07
2022-12-19T18:19:59.825Z,89.02
2022-12-19T18:22:17.916Z,89.08
2022-12-19T18:24:31.906Z,89.18
2022-12-19T18:26:45.654Z,88.97
2022-12-19T18:28:58.989Z,89.16
2022-12-19T18:31:19.242Z,89.31
2022-12-19T18:33:38.431Z,89.47
2022-12-19T18:35:52.986Z,89.57
2022-12-19T18:38:10.491Z,89.58
2022-12-19T18:40:31.184Z,89.45
2022-12-19T18:42:44.871Z,89.75
2022-12-19T18:44:58.127Z,89.70
2022-12-19T18:47:22.205Z,90.03
2022-12-19T18:49:37.922Z,90.07
2022-12-19T18:51:51.178Z,89.91
2022-12-19T18:54:05.311Z,89.42
2022-12-19T18:56:18.799Z,89.22
2022-12-19T18:58:32.423Z,89.37
2022-12-19T19:00:46.770Z,89.48
2022-12-19T19:03:03.417Z,89.33
2022-12-19T19:05:21.670Z,88.92
2022-12-19T19:07:35.101Z,88.85
2022-12-19T19:09:48.574Z,88.70
2022-12-19T19:12:22.088Z,88.50
2022-12-19T19:14:35.656Z,88.55
2022-12-19T19:16:50.992Z,88.37
2022-12-19T19:19:05.459Z,88.23
2022-12-19T19:21:19.923Z,87.98
2022-12-19T19:23:37.100Z,87.68
2022-12-19T19:25:51.800Z,87.58
2022-12-19T19:28:05.107Z,87.41
2022-12-19T19:30:19.145Z,87.56
2022-12-19T19:32:32.968Z,87.70
2022-12-19T19:34:47.338Z,87.63
2022-12-19T19:37:04.860Z,87.36
2022-12-19T19:39:18.589Z,87.03
2022-12-19T19:41:34.177Z,87.12
2022-12-19T19:43:47.421Z,87.34
2022-12-19T19:46:00.943Z,86.97
2022-12-19T19:48:14.580Z,86.93
2022-12-19T19:50:27.985Z,86.64
2022-12-19T19:52:41.945Z,86.49
2022-12-19T19:54:55.397Z,86.37
2022-12-19T19:57:09.499Z,86.40
2022-12-19T19:59:23.135Z,86.45
2022-12-19T20:01:36.470Z,86.67
2022-12-19T20:03:50.658Z,86.61
2022-12-19T20:06:07.464Z,86.57
2022-12-19T20:08:21.440Z,86.64
2022-12-19T20:10:34.936Z,86.94
2022-12-19T20:12:48.783Z,86.94
2022-12-19T20:15:02.235Z,87.02
2022-12-19T20:17:15.634Z,86.83
2022-12-19T20:19:29.059Z,86.80
2022-12-19T20:21:42.425Z,86.83
2022-12-19T20:23:55.748Z,86.99
2022-12-19T20:26:10.521Z,87.29
2022-12-19T20:28:23.826Z,87.32
2022-12-19T20:30:37.248Z,87.31
2022-12-19T20:32:50.897Z,87.36
2022-12-19T20:35:09.081Z,87.46
2022-12-19T20:37:26.517Z,87.56
2022-12-19T20:39:40.870Z,87.35
2022-12-19T20:41:55.170Z,87.43
2022-12-19T20:44:08.868Z,87.31
2022-12-19T20:46:24.158Z,87.13
2022-12-19T20:48:37.807Z,86.95
2022-12-19T20:50:51.043Z,86.88
2022-12-19T20:53:04.321Z,86.59
2022-12-19T20:55:18.084Z,86.15
2022-12-19T20:57:33.261Z,86.27
2022-12-19T20:59:46.463Z,86.32
2022-12-19T21:02:01.769Z,86.19
2022-12-19T21:04:15.321Z,85.94
2022-12-19T21:06:29.881Z,85.78
2022-12-19T21:08:43.462Z,85.46
2022-12-19T21:10:56.821Z,85.20
2022-12-19T21:13:10.059Z,85.17
2022-12-19T21:15:25.767Z,84.99
2022-12-19T21:17:39.118Z,84.42
2022-12-19T21:19:52.249Z,84.40
2022-12-19T21:22:05.772Z,84.63
2022-12-19T21:24:19.012Z,84.48
2022-12-19T21:26:32.896Z,84.44
2022-12-19T21:28:46.997Z,84.59
2022-12-19T21:31:04.563Z,84.35
2022-12-19T21:33:18.085Z,84.27
2022-12-19T21:35:31.581Z,84.17
2022-12-19T21:37:45.374Z,84.14
2022-12-19T21:39:58.893Z,83.85
2022-12-19T21:42:12.404Z,83.74
2022-12-19T21:44:25.783Z,83.61
2022-12-19T21:46:39.726Z,83.43
2022-12-19T21:48:54.800Z,83.26
2022-12-19T21:51:08.329Z,83.21
2022-12-19T21:53:21.970Z,83.11
2022-12-19T21:55:35.314Z,83.15
2022-12-19T21:57:48.740Z,83.19
2022-12-19T22:00:02.042Z,83.26
2022-12-19T22:02:18.219Z,83.24
2022-12-19T22:04:31.564Z,83.00
2022-12-19T22:06:44.890Z,82.88
2022-12-19T22:08:58.285Z,82.79
2022-12-19T22:11:18.666Z,82.71
2022-12-19T22:13:32.502Z,82.71
2022-12-19T22:15:45.827Z,82.67
2022-12-19T22:17:59.393Z,82.54
2022-12-19T22:20:14.303Z,82.41
2022-12-19T22:22:27.507Z,82.53
2022-12-19T22:24:41.024Z,82.64
2022-12-19T22:26:54.655Z,82.75
2022-12-19T22:29:10.370Z,82.69
2022-12-19T22:31:25.571Z,82.92
2022-12-19T22:33:38.913Z,83.00
2022-12-19T22:35:52.151Z,82.92
2022-12-19T22:38:05.398Z,82.91
2022-12-19T22:40:19.533Z,82.96
2022-12-19T22:42:33.739Z,82.93
2022-12-19T22:44:47.058Z,82.87
2022-12-19T22:47:01.156Z,82.74
2022-12-19T22:49:15.400Z,82.93
2022-12-19T22:51:29.296Z,83.12
2022-12-19T22:53:43.591Z,83.08
2022-12-19T22:55:56.976Z,83.31
2022-12-19T22:58:10.222Z,83.29
2022-12-19T23:00:24.346Z,83.32
2022-12-19T23:02:37.765Z,83.29
2022-12-19T23:04:51.294Z,83.37
2022-12-19T23:07:04.607Z,83.24
2022-12-19T23:09:19.790Z,83.24
2022-12-19T23:11:35.423Z,83.55
2022-12-19T23:13:49.860Z,83.60
2022-12-19T23:16:04.473Z,83.54
2022-12-19T23:18:17.789Z,83.81
2022-12-19T23:20:31.274Z,83.92
2022-12-19T23:22:44.913Z,83.99
2022-12-19T23:24:58.337Z,84.00
2022-12-19T23:27:11.752Z,84.17
2022-12-19T23:29:24.920Z,84.25
2022-12-19T23:31:38.995Z,84.28
2022-12-19T23:33:52.309Z,84.29
2022-12-19T23:36:05.977Z,84.15
2022-12-19T23:38:19.208Z,84.07
2022-12-19T23:40:32.698Z,84.37
2022-12-19T23:42:46.044Z,84.74
2022-12-19T23:44:59.299Z,84.93
2022-12-19T23:47:12.540Z,84.97
2022-12-19T23:49:25.791Z,84.90
2022-12-19T23:51:39.041Z,85.02
2022-12-19T23:53:52.572Z,85.28
2022-12-19T23:56:07.240Z,85.32
2022-12-19T23:58:24.366Z,85.37
